LFOE 250900Z AUTO 20004KT 150V250 9000 NSC 23/18 Q1016 NOSIG

ElémentsDécodage
LFOE Station météo située sur l'aérodrome de EVREUX Fauville
250900Z émis le 25 du mois à 09h00 UTC
AUTO Bulletin édité par un automate
20004KT vent du 200°, 04 noeuds
150V250 vent de direction variable entre 150° et 250°
9000 visibilité horizontale de 9000 mètres
NSC pas de nuage significatif (pas de nuage <5000ft, pas de CB)
23/18 température 23°C, point de rosée 18°C
 soit une humidité relative de 73%
Q1016 la pression au niveau de la mer (QNH) est de 1016 hPa
NOSIG Pas de changement significatif prévu au cours des deux heures suivant l'heure de l'observation